Time;durP1;ratioP1;P1;durP2;ratioP2;P2;SDS_P1;SDS_P2;PMS_P1;PMS_P2;Temp;Humidity;BMP_temperature;BMP_pressure;BME280_temperature;BME280_humidity;BME280_pressure;Samples;Min_cycle;Max_cycle;Signal;HPM_P1;HPM_P2
2022/09/03 00:00:58;;;;;;;2.13;0.30;;;;;;;15.86;52.97;101441.63;2088526;28;28712;-72
2022/09/03 00:02:24;;;;;;;0.63;0.40;;;;;;;15.80;53.50;101437.34;2088547;28;28621;-73
2022/09/03 00:03:50;;;;;;;0.70;0.20;;;;;;;15.80;53.47;101437.34;2082293;28;25980;-73
2022/09/03 00:05:15;;;;;;;0.90;0.20;;;;;;;15.73;53.37;101437.59;2085261;28;26784;-74
2022/09/03 00:06:51;;;;;;;0.80;0.30;;;;;;;15.70;54.05;101443.97;2079635;28;38509;-73
2022/09/03 00:08:21;;;;;;;4.72;0.30;;;;;;;15.61;54.00;101437.09;2086801;28;24242;-73
2022/09/03 00:09:45;;;;;;;1.10;0.25;;;;;;;15.59;54.22;101438.09;2088422;28;33721;-73
2022/09/03 00:11:05;;;;;;;1.88;0.40;;;;;;;15.55;54.60;101437.31;2079708;28;34378;-74
2022/09/03 00:12:14;;;;;;;1.67;0.35;;;;;;;15.51;54.91;101437.50;2084094;28;20075;-74
2022/09/03 00:14:03;;;;;;;2.55;0.20;;;;;;;15.45;54.75;101444.88;2080226;28;20030;-74
2022/09/03 00:15:10;;;;;;;1.88;0.40;;;;;;;15.44;54.91;101447.63;2053678;28;27188;-73
2022/09/03 00:16:18;;;;;;;0.93;0.30;;;;;;;15.42;55.16;101442.25;2056002;28;24212;-73
2022/09/03 00:17:48;;;;;;;0.65;0.30;;;;;;;15.36;55.26;101441.59;2073528;28;25677;-73
2022/09/03 00:19:00;;;;;;;0.68;0.30;;;;;;;15.37;55.43;101443.38;2079687;28;25138;-73
2022/09/03 00:20:07;;;;;;;2.45;0.30;;;;;;;15.38;55.30;101442.41;2079751;28;30576;-73
2022/09/03 00:21:21;;;;;;;3.97;0.30;;;;;;;15.32;55.34;101438.13;2080715;28;32384;-73
2022/09/03 00:22:40;;;;;;;1.58;0.40;;;;;;;15.26;55.55;101436.53;2088726;28;28534;-73
2022/09/03 00:23:46;;;;;;;1.08;0.20;;;;;;;15.28;55.41;101439.16;2079513;28;22200;-73
2022/09/03 00:24:49;;;;;;;1.20;0.50;;;;;;;15.26;55.73;101438.34;2081565;28;26097;-73
2022/09/03 00:26:16;;;;;;;0.60;0.20;;;;;;;15.25;55.68;101440.16;2080351;28;20099;-74
2022/09/03 00:27:24;;;;;;;1.33;0.32;;;;;;;15.21;56.04;101438.50;2084323;28;20976;-73
2022/09/03 00:28:39;;;;;;;2.95;0.30;;;;;;;15.23;56.03;101442.00;2080171;28;20127;-74
2022/09/03 00:29:53;;;;;;;1.73;0.50;;;;;;;15.15;56.05;101441.41;2074344;28;20041;-73
2022/09/03 00:31:26;;;;;;;0.93;0.30;;;;;;;15.14;56.12;101434.25;2081488;28;28338;-74
2022/09/03 00:33:05;;;;;;;0.60;0.20;;;;;;;15.14;56.17;101439.63;2088133;28;27215;-74
2022/09/03 00:34:30;;;;;;;2.80;0.30;;;;;;;15.07;56.26;101449.78;2077545;28;37964;-73
2022/09/03 00:36:04;;;;;;;1.98;0.30;;;;;;;15.08;56.52;101439.84;2080457;28;25486;-72
2022/09/03 00:37:10;;;;;;;2.40;0.43;;;;;;;15.07;56.26;101440.78;2079602;28;35481;-73
2022/09/03 00:38:13;;;;;;;1.27;0.30;;;;;;;14.99;56.42;101445.56;2079991;28;39501;-73
2022/09/03 00:39:22;;;;;;;1.88;0.30;;;;;;;14.98;56.65;101449.19;2071038;28;28978;-73
2022/09/03 00:40:48;;;;;;;3.47;0.40;;;;;;;14.99;56.86;101442.88;2064419;28;29308;-73
2022/09/03 00:42:22;;;;;;;1.83;0.45;;;;;;;15.00;56.65;101445.50;2075884;28;31189;-73
2022/09/03 00:43:30;;;;;;;0.80;0.20;;;;;;;14.95;56.93;101441.19;2080419;28;24480;-73
2022/09/03 00:45:01;;;;;;;1.05;0.30;;;;;;;14.89;56.95;101443.19;2071560;28;27774;-73
2022/09/03 00:46:31;;;;;;;2.20;0.30;;;;;;;14.87;57.46;101439.63;2067542;28;27921;-73
2022/09/03 00:48:06;;;;;;;0.90;0.27;;;;;;;14.82;57.34;101441.59;2078213;28;31919;-73
2022/09/03 00:49:11;;;;;;;2.67;0.40;;;;;;;14.80;57.44;101446.13;2071470;28;23996;-73
2022/09/03 00:50:51;;;;;;;1.92;0.30;;;;;;;14.77;57.38;101443.56;2071519;28;42434;-73
2022/09/03 00:52:05;;;;;;;;;;;;;;;14.73;57.81;101441.88;2071688;28;31693;-73
2022/09/03 00:53:15;;;;;;;1.55;0.40;;;;;;;14.72;58.09;101436.56;2070026;28;27309;-73
2022/09/03 00:55:46;;;;;;;3.13;0.30;;;;;;;14.65;58.42;101442.13;2073228;28;31728;-73
2022/09/03 00:57:12;;;;;;;1.45;0.50;;;;;;;14.59;58.24;101436.97;2062575;28;36879;-73
2022/09/03 00:58:36;;;;;;;1.25;0.40;;;;;;;14.62;58.88;101438.66;2069275;28;23546;-73
2022/09/03 01:00:01;;;;;;;2.38;0.50;;;;;;;14.56;59.22;101444.22;2079904;28;27858;-74
2022/09/03 01:01:40;;;;;;;2.15;0.50;;;;;;;14.49;59.19;101439.00;2079634;28;37399;-73
2022/09/03 01:02:48;;;;;;;2.67;0.40;;;;;;;14.47;60.02;101448.09;2071225;28;24633;-74
2022/09/03 01:04:06;;;;;;;1.48;0.32;;;;;;;14.41;60.07;101433.00;2079124;28;33242;-73
2022/09/03 01:05:42;;;;;;;2.65;0.47;;;;;;;14.40;60.76;101439.28;2071448;28;28327;-75
2022/09/03 01:07:29;;;;;;;4.35;0.32;;;;;;;14.34;60.25;101434.13;2071409;28;23649;-75
2022/09/03 01:09:02;;;;;;;1.67;0.45;;;;;;;14.28;60.66;101439.66;2069644;28;32878;-75
2022/09/03 01:10:37;;;;;;;2.13;0.40;;;;;;;14.24;60.45;101438.88;2079313;28;31171;-75
2022/09/03 01:11:59;;;;;;;1.83;0.40;;;;;;;14.20;61.01;101441.72;2079028;28;42383;-75
2022/09/03 01:13:13;;;;;;;3.97;0.40;;;;;;;14.16;61.11;101442.72;2080394;28;23982;-75
2022/09/03 01:14:39;;;;;;;1.13;0.40;;;;;;;14.12;61.38;101431.16;2080014;28;27194;-75
2022/09/03 01:16:28;;;;;;;1.58;0.50;;;;;;;14.08;61.28;101438.44;2080285;28;20042;-75
2022/09/03 01:18:07;;;;;;;1.52;0.40;;;;;;;14.08;61.59;101440.28;2075997;28;26819;-75
2022/09/03 01:19:50;;;;;;;2.38;0.32;;;;;;;14.05;62.00;101441.25;2080026;28;25665;-75
2022/09/03 01:21:45;;;;;;;2.10;0.30;;;;;;;14.01;61.92;101441.38;2079219;28;37892;-74
2022/09/03 01:23:26;;;;;;;3.30;0.40;;;;;;;13.94;61.82;101440.66;2079881;28;27940;-75
2022/09/03 01:25:11;;;;;;;1.48;0.40;;;;;;;13.87;62.28;101439.06;2079862;28;32124;-75
2022/09/03 01:26:40;;;;;;;1.20;0.30;;;;;;;13.84;62.42;101442.75;2079422;28;30076;-75
2022/09/03 01:28:26;;;;;;;1.90;0.50;;;;;;;13.85;62.58;101436.41;2079365;28;33652;-75
2022/09/03 01:29:43;;;;;;;2.40;0.30;;;;;;;13.84;62.70;101436.50;2080452;28;21633;-75
2022/09/03 01:31:15;;;;;;;2.25;0.65;;;;;;;13.81;62.22;101433.88;2079102;28;33335;-75
2022/09/03 01:32:44;;;;;;;2.60;0.40;;;;;;;13.77;62.75;101438.47;2078226;28;31054;-74
2022/09/03 01:34:16;;;;;;;4.40;0.50;;;;;;;13.75;62.68;101430.44;2078994;28;26022;-74
2022/09/03 01:35:56;;;;;;;3.08;0.50;;;;;;;13.73;63.01;101428.72;2079714;28;29298;-74
2022/09/03 01:37:26;;;;;;;2.65;0.40;;;;;;;13.67;63.45;101435.13;2070660;28;37530;-74
2022/09/03 01:38:39;;;;;;;;;;;;;;;13.65;63.02;101430.75;2080337;28;30585;-74
2022/09/03 01:40:04;;;;;;;1.58;0.40;;;;;;;13.62;63.56;101431.72;2079376;28;32252;-74
2022/09/03 01:43:38;;;;;;;1.25;0.40;;;;;;;13.55;63.72;101438.19;2079899;28;25870;-74
2022/09/03 01:45:26;;;;;;;2.75;0.35;;;;;;;13.58;63.74;101434.53;2079832;28;23124;-75
2022/09/03 01:46:44;;;;;;;2.85;0.40;;;;;;;13.53;64.00;101438.22;2079861;28;28044;-74
2022/09/03 01:47:50;;;;;;;0.80;0.40;;;;;;;13.53;64.25;101429.25;2079353;28;28415;-74
2022/09/03 01:49:21;;;;;;;1.23;0.40;;;;;;;13.51;63.85;101428.41;2080100;28;27470;-75
2022/09/03 01:51:09;;;;;;;3.50;0.35;;;;;;;13.48;64.03;101432.09;2079397;28;23980;-73
2022/09/03 01:52:53;;;;;;;;;;;;;;;13.44;63.87;101438.47;2071375;28;20109;-72
2022/09/03 01:54:23;;;;;;;2.67;0.30;;;;;;;13.39;63.76;101432.34;2076563;28;29759;-75
2022/09/03 01:55:55;;;;;;;1.08;0.40;;;;;;;13.44;63.96;101442.97;2087629;28;30349;-75
2022/09/03 01:57:27;;;;;;;1.73;0.40;;;;;;;13.47;63.81;101440.19;2079282;28;32641;-74
2022/09/03 01:59:02;;;;;;;1.55;0.30;;;;;;;13.40;63.96;101434.09;2087696;28;30997;-73
2022/09/03 02:00:14;;;;;;;1.40;0.40;;;;;;;13.44;64.09;101442.97;2078945;28;29123;-73
2022/09/03 02:01:29;;;;;;;2.65;0.38;;;;;;;13.40;64.06;101441.28;2079207;28;29951;-74
2022/09/03 02:02:31;;;;;;;0.60;0.25;;;;;;;13.36;64.34;101444.03;2079809;28;20042;-73
2022/09/03 02:03:39;;;;;;;2.13;0.40;;;;;;;13.33;64.84;101435.19;2079533;28;32810;-73
2022/09/03 02:04:42;;;;;;;1.05;0.40;;;;;;;13.30;64.47;101438.81;2079632;28;22133;-73
2022/09/03 02:05:46;;;;;;;1.08;0.30;;;;;;;13.34;64.43;101440.53;2078980;28;31380;-73
2022/09/03 02:06:55;;;;;;;1.40;0.30;;;;;;;13.33;64.58;101440.56;2079511;28;32657;-73
2022/09/03 02:08:00;;;;;;;1.83;0.32;;;;;;;13.31;64.67;101439.72;2079418;28;24223;-73
2022/09/03 02:09:02;;;;;;;1.98;0.40;;;;;;;13.28;64.29;101439.75;2079494;28;23535;-73
2022/09/03 02:10:10;;;;;;;2.42;0.47;;;;;;;13.31;64.55;101442.41;2080239;28;20892;-72
2022/09/03 02:11:14;;;;;;;1.52;0.30;;;;;;;13.28;64.47;101443.34;2078834;28;30032;-73
2022/09/03 02:12:19;;;;;;;1.80;0.35;;;;;;;13.28;65.01;101445.13;2070937;28;22404;-72
2022/09/03 02:13:30;;;;;;;0.90;0.40;;;;;;;13.30;64.62;101449.56;2071049;28;39399;-72
2022/09/03 02:14:33;;;;;;;2.40;0.30;;;;;;;13.22;65.16;101446.19;2079027;28;36936;-73
2022/09/03 02:15:38;;;;;;;4.53;0.43;;;;;;;13.24;64.98;101444.31;2070524;28;25626;-72
2022/09/03 02:16:42;;;;;;;0.88;0.30;;;;;;;13.28;65.05;101437.97;2071473;28;27277;-72
2022/09/03 02:17:48;;;;;;;0.98;0.30;;;;;;;13.20;64.74;101442.66;2078908;28;27090;-72
2022/09/03 02:18:56;;;;;;;1.63;0.30;;;;;;;13.16;64.86;101440.97;2078660;28;40186;-73
2022/09/03 02:20:05;;;;;;;1.60;0.30;;;;;;;13.16;65.32;101447.22;2079696;28;20139;-72
2022/09/03 02:21:09;;;;;;;3.13;0.40;;;;;;;13.11;65.49;101441.06;2080246;28;20042;-72
2022/09/03 02:22:12;;;;;;;2.22;0.30;;;;;;;13.11;64.82;101437.50;2078599;28;27544;-73
2022/09/03 02:23:14;;;;;;;1.55;0.30;;;;;;;13.08;65.46;101438.50;2078979;28;28760;-74
2022/09/03 02:24:19;;;;;;;1.15;0.40;;;;;;;13.07;65.59;101446.59;2078779;28;29745;-72
2022/09/03 02:25:28;;;;;;;1.83;0.40;;;;;;;13.04;65.78;101441.28;2086571;28;29229;-72
2022/09/03 02:26:32;;;;;;;1.00;0.40;;;;;;;13.03;65.76;101444.88;2071468;28;20035;-71
2022/09/03 02:27:37;;;;;;;4.88;0.60;;;;;;;13.03;65.32;101440.41;2072901;28;22944;-72
2022/09/03 02:28:39;;;;;;;2.10;0.40;;;;;;;13.03;65.64;101445.78;2079266;28;22935;-72
2022/09/03 02:29:41;;;;;;;1.13;0.32;;;;;;;12.96;65.92;101445.03;2079508;28;26394;-72
2022/09/03 02:30:43;;;;;;;2.40;0.43;;;;;;;12.97;66.18;101443.22;2087212;28;30604;-72
2022/09/03 02:31:47;;;;;;;1.20;0.40;;;;;;;13.01;66.42;101442.25;2078650;28;27595;-72
2022/09/03 02:32:50;;;;;;;1.25;0.40;;;;;;;13.04;65.75;101444.84;2079944;28;20077;-72
2022/09/03 02:33:52;;;;;;;2.90;0.40;;;;;;;13.02;66.11;101438.63;2088011;28;27861;-73
2022/09/03 02:34:54;;;;;;;0.90;0.38;;;;;;;13.06;66.03;101431.38;2088267;28;20042;-73
2022/09/03 02:35:55;;;;;;;1.30;0.30;;;;;;;12.99;66.03;101433.31;2083135;28;23364;-73
2022/09/03 02:36:57;;;;;;;0.75;0.30;;;;;;;12.94;66.09;101427.19;2088083;28;26628;-72
2022/09/03 02:38:20;;;;;;;1.02;0.50;;;;;;;12.92;66.11;101437.97;2087311;28;21674;-72
2022/09/03 02:39:22;;;;;;;2.03;0.30;;;;;;;12.88;66.79;101430.91;2078406;28;24440;-72
2022/09/03 02:40:26;;;;;;;2.75;0.40;;;;;;;12.89;66.25;101435.38;2080317;28;20804;-72
2022/09/03 02:41:28;;;;;;;1.60;0.40;;;;;;;12.84;66.90;101439.97;2087185;28;25611;-72
2022/09/03 02:42:30;;;;;;;4.57;0.52;;;;;;;12.86;67.20;101438.13;2087775;28;20033;-72
2022/09/03 02:43:44;;;;;;;2.20;0.30;;;;;;;12.88;66.25;101438.97;2087014;28;38603;-72
2022/09/03 02:44:56;;;;;;;1.33;0.30;;;;;;;12.82;66.45;101441.81;2088643;28;27216;-72
2022/09/03 02:46:03;;;;;;;2.38;0.45;;;;;;;12.80;66.04;101439.16;2080515;28;24070;-73
2022/09/03 02:47:07;;;;;;;1.27;0.40;;;;;;;12.80;67.29;101441.84;2082599;28;30325;-72
2022/09/03 02:48:12;;;;;;;0.73;0.30;;;;;;;12.76;66.75;101447.34;2089404;28;27467;-73
2022/09/03 02:49:15;;;;;;;0.80;0.30;;;;;;;12.78;66.96;101449.06;2080886;28;20949;-73
2022/09/03 02:50:17;;;;;;;1.35;0.38;;;;;;;12.74;66.85;101443.78;2080567;28;32705;-73
2022/09/03 02:51:19;;;;;;;1.13;0.40;;;;;;;12.74;66.97;101438.41;2088893;28;29722;-72
2022/09/03 02:52:20;;;;;;;2.22;0.30;;;;;;;12.73;67.14;101442.03;2088841;28;30141;-72
2022/09/03 02:53:22;;;;;;;1.33;0.35;;;;;;;12.74;67.26;101441.09;2089202;28;30319;-72
2022/09/03 02:54:24;;;;;;;2.08;0.40;;;;;;;12.69;67.10;101441.22;2089407;28;20848;-72
2022/09/03 02:55:26;;;;;;;3.97;0.50;;;;;;;12.72;67.52;101448.31;2089129;28;29324;-72
2022/09/03 02:56:28;;;;;;;1.85;0.30;;;;;;;12.69;66.96;101449.28;2089482;28;20046;-72
2022/09/03 02:57:29;;;;;;;1.05;0.32;;;;;;;12.69;67.62;101446.59;2088934;28;30249;-71
2022/09/03 02:58:31;;;;;;;1.35;0.25;;;;;;;12.67;67.26;101442.16;2089548;28;20883;-72
2022/09/03 02:59:38;;;;;;;0.93;0.50;;;;;;;12.70;67.37;101447.47;2088759;28;26774;-72
2022/09/03 03:00:40;;;;;;;2.35;0.35;;;;;;;12.71;66.91;101449.25;2088576;28;38355;-72
2022/09/03 03:01:42;;;;;;;2.20;0.32;;;;;;;12.66;67.61;101445.78;2089344;28;20033;-72
2022/09/03 03:02:45;;;;;;;1.02;0.30;;;;;;;12.68;67.72;101443.94;2088927;28;27005;-72
2022/09/03 03:03:47;;;;;;;2.60;0.40;;;;;;;12.62;67.63;101438.72;2089312;28;31020;-74
2022/09/03 03:04:53;;;;;;;1.30;0.35;;;;;;;12.58;67.88;101446.84;2089021;28;25486;-72
2022/09/03 03:06:00;;;;;;;1.25;0.50;;;;;;;12.63;67.70;101440.47;2089280;28;24769;-72
2022/09/03 03:07:01;;;;;;;1.40;0.47;;;;;;;12.62;67.66;101441.41;2079870;28;29302;-72
2022/09/03 03:08:07;;;;;;;0.93;0.40;;;;;;;12.59;68.06;101440.53;2081659;28;20160;-72
2022/09/03 03:09:09;;;;;;;1.13;0.30;;;;;;;12.57;67.94;101437.00;2089106;28;20038;-72
2022/09/03 03:10:11;;;;;;;1.65;0.45;;;;;;;12.57;68.32;101445.06;2089184;28;39849;-72
2022/09/03 03:11:17;;;;;;;1.67;0.45;;;;;;;12.59;67.82;101440.53;2089049;28;35188;-72
2022/09/03 03:12:18;;;;;;;1.27;0.32;;;;;;;12.59;67.97;101434.28;2080525;28;27351;-72
2022/09/03 03:13:20;;;;;;;1.92;0.30;;;;;;;12.56;67.69;101435.25;2080659;28;27749;-72
2022/09/03 03:14:22;;;;;;;1.23;0.50;;;;;;;12.58;68.06;101444.16;2089193;28;24149;-72
2022/09/03 03:15:24;;;;;;;1.88;0.30;;;;;;;12.57;67.34;101438.81;2088582;28;32416;-72
2022/09/03 03:16:26;;;;;;;2.38;0.47;;;;;;;12.58;68.15;101443.28;2089603;28;20115;-73
2022/09/03 03:17:28;;;;;;;1.45;0.30;;;;;;;12.59;68.09;101447.72;2088779;28;27615;-72
2022/09/03 03:18:30;;;;;;;1.27;0.30;;;;;;;12.58;68.14;101436.09;2088521;28;25873;-72
2022/09/03 03:19:33;;;;;;;1.75;0.35;;;;;;;12.56;67.76;101445.09;2088729;28;24076;-72
2022/09/03 03:20:38;;;;;;;1.02;0.40;;;;;;;12.56;67.96;101440.63;2080298;28;24404;-73
2022/09/03 03:21:40;;;;;;;1.48;0.40;;;;;;;12.53;67.75;101443.38;2080022;28;30030;-73
2022/09/03 03:22:42;;;;;;;1.50;0.40;;;;;;;12.54;68.33;101446.94;2080208;28;35787;-73
2022/09/03 03:23:47;;;;;;;1.38;0.40;;;;;;;12.57;68.44;101452.25;2080750;28;20034;-72
2022/09/03 03:24:49;;;;;;;0.70;0.30;;;;;;;12.58;67.98;101448.66;2089389;28;20095;-72
2022/09/03 03:25:51;;;;;;;3.33;0.65;;;;;;;12.54;67.95;101449.63;2088326;28;26183;-73
2022/09/03 03:26:59;;;;;;;1.50;0.30;;;;;;;12.55;67.88;101449.59;2089085;28;30895;-72
2022/09/03 03:28:02;;;;;;;2.25;0.30;;;;;;;12.52;68.53;101444.28;2079859;28;24764;-72
2022/09/03 03:29:04;;;;;;;1.08;0.30;;;;;;;12.49;68.02;101455.13;2081027;28;30996;-73
2022/09/03 03:30:08;;;;;;;1.73;0.52;;;;;;;12.51;68.44;101447.91;2079256;28;38371;-72
2022/09/03 03:31:14;;;;;;;1.30;0.30;;;;;;;12.52;68.62;101448.78;2080899;28;21658;-72
2022/09/03 03:32:16;;;;;;;1.60;0.50;;;;;;;12.48;68.71;101439.91;2087887;28;25711;-72
2022/09/03 03:33:17;;;;;;;2.25;0.32;;;;;;;12.44;68.83;101440.03;2089332;28;25086;-72
2022/09/03 03:34:20;;;;;;;2.00;0.43;;;;;;;12.39;68.78;101441.00;2088399;28;38926;-72
2022/09/03 03:35:23;;;;;;;1.10;0.40;;;;;;;12.38;69.40;101446.41;2088771;28;29337;-72
2022/09/03 03:36:28;;;;;;;1.30;0.57;;;;;;;12.36;69.04;101443.78;2079760;28;28421;-72
2022/09/03 03:37:31;;;;;;;1.73;0.50;;;;;;;12.40;69.02;101449.97;2080752;28;30229;-73
2022/09/03 03:38:35;;;;;;;1.75;0.38;;;;;;;12.36;69.06;101448.25;2079671;28;28867;-73
2022/09/03 03:39:36;;;;;;;1.20;0.35;;;;;;;12.35;69.13;101446.50;2080021;28;24531;-73
2022/09/03 03:40:38;;;;;;;1.77;0.35;;;;;;;12.32;69.23;101446.56;2088784;28;23991;-72
2022/09/03 03:41:40;;;;;;;0.77;0.30;;;;;;;12.28;69.50;101443.06;2080155;28;23768;-72
2022/09/03 03:42:42;;;;;;;1.20;0.40;;;;;;;12.28;69.40;101445.72;2080082;28;22570;-72
2022/09/03 03:43:44;;;;;;;0.95;0.40;;;;;;;12.28;69.35;101444.88;2089098;28;27722;-72
2022/09/03 03:44:46;;;;;;;3.00;0.80;;;;;;;12.27;69.66;101445.75;2071288;28;27404;-72
2022/09/03 03:45:57;;;;;;;2.45;0.60;;;;;;;12.26;69.65;101452.03;2072210;28;30841;-72
2022/09/03 03:46:59;;;;;;;1.42;0.40;;;;;;;12.22;69.36;101446.75;2089221;28;20045;-72
2022/09/03 03:48:01;;;;;;;1.77;0.52;;;;;;;12.20;69.21;101445.91;2089009;28;22389;-73
2022/09/03 03:49:06;;;;;;;2.45;0.50;;;;;;;12.22;70.00;101448.53;2088798;28;26419;-72
2022/09/03 03:50:08;;;;;;;3.13;0.60;;;;;;;12.23;69.62;101450.31;2080158;28;31417;-72
2022/09/03 03:51:10;;;;;;;1.52;0.60;;;;;;;12.20;69.52;101453.97;2079366;28;25843;-72
2022/09/03 03:52:12;;;;;;;2.30;0.60;;;;;;;12.21;70.07;101446.78;2080668;28;27217;-72
2022/09/03 03:53:14;;;;;;;3.47;0.80;;;;;;;12.15;69.71;101446.91;2080649;28;23689;-72
2022/09/03 03:54:15;;;;;;;1.85;0.40;;;;;;;12.12;69.80;101447.00;2080281;28;33409;-72
2022/09/03 03:55:23;;;;;;;0.93;0.47;;;;;;;12.14;70.54;101448.72;2081008;28;20030;-73
2022/09/03 03:56:27;;;;;;;2.10;0.60;;;;;;;12.12;70.43;101445.19;2080354;28;34433;-72
2022/09/03 03:57:31;;;;;;;2.25;0.50;;;;;;;12.13;70.25;101441.59;2071664;28;28373;-71
2022/09/03 03:58:33;;;;;;;1.40;0.45;;;;;;;12.10;70.48;101441.66;2072250;28;27101;-72
2022/09/03 03:59:35;;;;;;;1.48;0.50;;;;;;;12.06;71.00;101448.00;2080005;28;20189;-72
2022/09/03 04:00:38;;;;;;;2.35;0.43;;;;;;;12.07;70.09;101441.69;2079973;28;25491;-72
2022/09/03 04:01:40;;;;;;;2.65;0.40;;;;;;;12.09;70.86;101445.22;2080385;28;29513;-73
2022/09/03 04:02:42;;;;;;;3.42;0.40;;;;;;;12.06;70.67;101439.03;2080316;28;30802;-73
2022/09/03 04:03:44;;;;;;;1.33;0.50;;;;;;;12.03;70.77;101440.00;2080306;28;33845;-74
2022/09/03 04:04:46;;;;;;;1.15;0.45;;;;;;;12.00;71.08;101440.94;2080409;28;29105;-72
2022/09/03 04:05:55;;;;;;;1.38;0.50;;;;;;;11.98;71.26;101440.09;2080736;28;20955;-73
2022/09/03 04:06:57;;;;;;;2.13;0.40;;;;;;;11.96;70.98;101439.25;2079357;28;31316;-73
2022/09/03 04:08:01;;;;;;;3.13;0.70;;;;;;;11.94;71.14;101440.22;2079680;28;34430;-73
2022/09/03 04:09:03;;;;;;;2.47;0.35;;;;;;;11.90;70.93;101439.38;2080714;28;21535;-72
2022/09/03 04:10:06;;;;;;;2.22;0.40;;;;;;;11.91;71.12;101446.50;2080238;28;24046;-72
2022/09/03 04:11:13;;;;;;;2.38;1.05;;;;;;;11.84;71.67;101435.00;2080451;28;28312;-72
2022/09/03 04:12:15;;;;;;;2.00;0.52;;;;;;;11.82;71.76;101452.91;2071538;28;30745;-72
2022/09/03 04:13:17;;;;;;;2.60;0.40;;;;;;;11.79;71.92;101447.63;2071426;28;35969;-72
2022/09/03 04:14:20;;;;;;;2.58;0.65;;;;;;;11.81;71.59;101444.91;2080510;28;24143;-73
2022/09/03 04:15:22;;;;;;;2.42;0.65;;;;;;;11.80;71.90;101446.69;2080028;28;23439;-73
2022/09/03 04:16:26;;;;;;;2.60;0.30;;;;;;;11.83;71.44;101446.63;2080376;28;31249;-73
2022/09/03 04:17:28;;;;;;;1.65;0.50;;;;;;;11.83;71.57;101449.31;2080567;28;30880;-73
2022/09/03 04:18:34;;;;;;;1.45;0.55;;;;;;;11.80;71.99;101453.84;2080115;28;31927;-72
2022/09/03 04:19:37;;;;;;;4.95;0.60;;;;;;;11.78;71.74;101444.97;2079362;28;26333;-72
2022/09/03 04:20:39;;;;;;;1.73;0.63;;;;;;;11.81;71.79;101444.91;2079739;28;30393;-73
2022/09/03 04:21:40;;;;;;;1.70;0.50;;;;;;;11.80;71.83;101449.38;2085097;28;27249;-72
2022/09/03 04:22:42;;;;;;;2.10;0.47;;;;;;;11.78;72.21;101451.19;2088718;28;29707;-73
2022/09/03 04:23:48;;;;;;;0.82;0.40;;;;;;;11.79;72.16;101444.94;2088498;28;26771;-72
2022/09/03 04:24:49;;;;;;;1.02;0.52;;;;;;;11.79;72.20;101452.06;2088542;28;21773;-73
2022/09/03 04:25:52;;;;;;;1.35;0.50;;;;;;;11.81;72.00;101455.63;2088247;28;28966;-73
2022/09/03 04:26:54;;;;;;;3.00;0.65;;;;;;;11.81;71.76;101448.47;2088689;28;25203;-73
2022/09/03 04:27:56;;;;;;;4.78;0.60;;;;;;;11.79;72.08;101447.63;2088470;28;22048;-73
2022/09/03 04:29:01;;;;;;;1.88;0.60;;;;;;;11.82;71.70;101446.66;2088843;28;23395;-73
2022/09/03 04:30:04;;;;;;;4.10;0.63;;;;;;;11.84;71.88;101450.19;2089123;28;27221;-74
2022/09/03 04:31:09;;;;;;;1.02;0.40;;;;;;;11.77;71.46;101446.75;2088278;28;31973;-73
2022/09/03 04:33:36;;;;;;;1.50;0.50;;;;;;;11.77;72.34;101441.41;2088315;28;37599;-73
2022/09/03 04:34:38;;;;;;;2.25;0.60;;;;;;;11.80;71.89;101443.13;2088383;28;28759;-73
2022/09/03 04:35:40;;;;;;;4.57;0.60;;;;;;;11.85;71.97;101436.75;2088746;28;23915;-73
2022/09/03 04:36:42;;;;;;;3.80;0.47;;;;;;;11.81;71.95;101448.47;2079646;28;23823;-74
2022/09/03 04:37:44;;;;;;;1.65;0.57;;;;;;;11.84;72.16;101443.03;2079823;28;37385;-73
2022/09/03 04:38:48;;;;;;;2.08;0.45;;;;;;;11.80;72.00;101440.44;2088315;28;25584;-74
2022/09/03 04:39:49;;;;;;;1.50;0.68;;;;;;;11.83;71.94;101435.03;2080031;28;20164;-73
2022/09/03 04:40:52;;;;;;;2.65;0.50;;;;;;;11.79;71.62;101442.25;2079942;28;20454;-72
2022/09/03 04:41:53;;;;;;;1.52;0.73;;;;;;;11.79;71.61;101442.25;2088685;28;21893;-74
2022/09/03 04:42:58;;;;;;;2.45;0.50;;;;;;;11.80;71.92;101443.13;2088552;28;20042;-74
2022/09/03 04:44:00;;;;;;;1.98;0.70;;;;;;;11.77;71.50;101444.09;2079577;28;31607;-73
2022/09/03 04:45:01;;;;;;;1.50;0.50;;;;;;;11.78;71.91;101443.16;2080099;28;20046;-73
2022/09/03 04:46:06;;;;;;;1.35;0.47;;;;;;;11.79;71.81;101441.34;2088540;28;31844;-73
2022/09/03 04:47:11;;;;;;;2.40;0.77;;;;;;;11.83;71.93;101438.59;2079226;28;34187;-73
2022/09/03 04:48:13;;;;;;;3.53;0.57;;;;;;;11.87;71.94;101427.78;2080908;28;20160;-73
2022/09/03 04:49:15;;;;;;;0.90;0.57;;;;;;;11.84;71.79;101435.00;2079388;28;28115;-73
2022/09/03 04:50:19;;;;;;;1.50;0.60;;;;;;;11.85;71.68;101433.19;2071581;28;26276;-73
2022/09/03 04:51:26;;;;;;;4.15;0.70;;;;;;;11.83;71.73;101430.53;2078862;28;20041;-73
2022/09/03 04:52:30;;;;;;;1.52;0.63;;;;;;;11.83;71.80;101430.53;2080218;28;26111;-73
2022/09/03 04:53:38;;;;;;;3.75;0.68;;;;;;;11.83;71.83;101432.34;2079561;28;20138;-73
2022/09/03 04:54:40;;;;;;;1.83;0.68;;;;;;;11.81;71.86;101429.69;2081220;28;20038;-74
2022/09/03 04:55:41;;;;;;;1.00;0.60;;;;;;;11.81;72.20;101429.69;2087413;28;39399;-73
2022/09/03 04:56:45;;;;;;;3.10;0.60;;;;;;;11.84;72.66;101429.63;2088661;28;21929;-73
2022/09/03 04:57:47;;;;;;;2.55;0.52;;;;;;;11.83;72.10;101430.53;2087306;28;35019;-73
2022/09/03 04:58:58;;;;;;;3.33;0.60;;;;;;;11.83;72.32;101425.16;2087501;28;35628;-73
2022/09/03 05:00:00;;;;;;;1.08;0.50;;;;;;;11.82;72.15;101431.44;2088143;28;34375;-73
2022/09/03 05:01:14;;;;;;;4.28;0.52;;;;;;;11.83;72.39;101430.53;2088466;28;28979;-73
2022/09/03 05:02:16;;;;;;;2.30;0.80;;;;;;;11.89;71.71;101429.53;2079273;28;31372;-72
2022/09/03 05:03:21;;;;;;;1.65;0.60;;;;;;;11.88;71.85;101434.91;2080935;28;25131;-73
2022/09/03 05:04:23;;;;;;;1.80;0.70;;;;;;;11.89;71.88;101432.19;2088229;28;30982;-73
2022/09/03 05:05:24;;;;;;;2.65;0.60;;;;;;;11.89;71.84;101428.66;2088198;28;27562;-74
2022/09/03 05:06:28;;;;;;;3.50;0.60;;;;;;;11.91;71.61;101440.25;2087698;28;31760;-73
2022/09/03 05:07:37;;;;;;;3.40;0.70;;;;;;;11.93;71.90;101430.38;2086965;28;34162;-73
2022/09/03 05:08:39;;;;;;;3.88;0.75;;;;;;;11.96;71.59;101441.94;2088519;28;22811;-73
2022/09/03 05:09:40;;;;;;;2.13;0.63;;;;;;;11.99;71.82;101443.69;2087999;28;22490;-73
2022/09/03 05:10:42;;;;;;;6.55;0.80;;;;;;;12.03;71.59;101437.31;2088027;28;34152;-73
2022/09/03 05:11:44;;;;;;;1.35;0.77;;;;;;;12.05;71.49;101448.91;2088551;28;20129;-73
2022/09/03 05:12:48;;;;;;;3.67;0.60;;;;;;;12.11;70.94;101438.03;2088431;28;28316;-73
2022/09/03 05:13:57;;;;;;;2.13;0.57;;;;;;;12.15;70.89;101445.13;2087859;28;26467;-73
2022/09/03 05:15:04;;;;;;;2.40;0.73;;;;;;;12.21;71.01;101438.72;2088425;28;29865;-73
2022/09/03 05:16:09;;;;;;;1.77;0.70;;;;;;;12.28;69.91;101436.81;2088189;28;29187;-73
2022/09/03 05:17:11;;;;;;;2.65;0.60;;;;;;;12.32;70.08;101441.19;2088424;28;29250;-73
2022/09/03 05:18:13;;;;;;;2.28;0.63;;;;;;;12.40;69.82;101436.53;2088513;28;20033;-73
2022/09/03 05:19:17;;;;;;;3.25;0.70;;;;;;;12.56;69.12;101445.09;2079659;28;25631;-74
2022/09/03 05:20:20;;;;;;;1.98;0.70;;;;;;;12.76;68.51;101442.84;2079726;28;23208;-73
2022/09/03 05:21:23;;;;;;;3.83;0.80;;;;;;;13.11;67.14;101440.19;2079120;28;24460;-73
2022/09/03 05:22:25;;;;;;;2.15;0.85;;;;;;;13.55;65.47;101448.97;2079748;28;20034;-73
2022/09/03 05:23:29;;;;;;;1.20;0.75;;;;;;;14.06;64.01;101440.31;2087695;28;26698;-73
2022/09/03 05:24:34;;;;;;;3.92;0.65;;;;;;;14.52;62.27;101438.03;2088126;28;25482;-73
2022/09/03 05:25:36;;;;;;;1.23;0.60;;;;;;;14.84;60.96;101433.44;2088338;28;38123;-73
2022/09/03 05:26:38;;;;;;;2.10;0.60;;;;;;;14.87;59.97;101434.22;2088179;28;23542;-73
2022/09/03 05:27:40;;;;;;;2.53;0.90;;;;;;;15.31;59.05;101432.78;2088130;28;23843;-73
2022/09/03 05:28:43;;;;;;;3.00;0.82;;;;;;;15.42;58.00;101427.91;2087632;28;34359;-73
2022/09/03 05:29:45;;;;;;;3.00;0.75;;;;;;;15.74;56.83;101420.44;2088135;28;32398;-74
2022/09/03 05:31:02;;;;;;;1.98;0.60;;;;;;;15.83;56.24;101426.44;2087868;28;26691;-73
2022/09/03 05:32:06;;;;;;;4.95;0.60;;;;;;;16.12;55.90;101428.97;2079143;28;32514;-73